Time;durP1;ratioP1;P1;durP2;ratioP2;P2;SDS_P1;SDS_P2;PMS_P1;PMS_P2;Temp;Humidity;BMP_temperature;BMP_pressure;BME280_temperature;BME280_humidity;BME280_pressure;Samples;Min_cycle;Max_cycle;Signal;HPM_P1;HPM_P2
2022/04/02 00:01:33;;;;;;;4.45;2.90;;;;;;;;;;5054675;28;20425;-85
2022/04/02 00:03:59;;;;;;;4.53;3.00;;;;;;;;;;5055379;28;20918;-83
2022/04/02 00:06:25;;;;;;;5.43;3.10;;;;;;;;;;5052401;28;20483;-83
2022/04/02 00:08:52;;;;;;;3.85;2.80;;;;;;;;;;5058251;28;20488;-82
2022/04/02 00:11:18;;;;;;;5.95;2.80;;;;;;;;;;5054218;28;20425;-86
2022/04/02 00:13:44;;;;;;;4.57;2.78;;;;;;;;;;5054982;28;20456;-84
2022/04/02 00:16:12;;;;;;;4.40;2.90;;;;;;;;;;5055243;28;20827;-83
2022/04/02 00:18:39;;;;;;;4.57;2.80;;;;;;;;;;5056014;28;20425;-84
2022/04/02 00:21:05;;;;;;;3.90;3.00;;;;;;;;;;5054822;28;20480;-82
2022/04/02 00:23:39;;;;;;;4.33;2.50;;;;;;;;;;5052410;28;20505;-85
2022/04/02 00:26:06;;;;;;;7.43;2.90;;;;;;;;;;5055000;28;20479;-82
2022/04/02 00:28:33;;;;;;;3.92;2.88;;;;;;;;;;5048266;28;20429;-83
2022/04/02 00:30:59;;;;;;;5.88;2.95;;;;;;;;;;5055184;28;20414;-83
2022/04/02 00:33:27;;;;;;;4.88;3.00;;;;;;;;;;5047726;28;20842;-83
2022/04/02 00:35:54;;;;;;;5.43;3.00;;;;;;;;;;5054134;28;20418;-83
2022/04/02 00:38:20;;;;;;;4.22;2.53;;;;;;;;;;5055900;28;20880;-83
2022/04/02 00:40:46;;;;;;;4.50;2.70;;;;;;;;;;5051276;28;20775;-82
2022/04/02 00:43:21;;;;;;;5.97;2.90;;;;;;;;;;5054240;28;20440;-83
2022/04/02 00:45:48;;;;;;;6.28;3.10;;;;;;;;;;5053187;28;20441;-83
2022/04/02 00:48:14;;;;;;;4.07;3.30;;;;;;;;;;5055818;28;20421;-83
2022/04/02 00:50:41;;;;;;;4.18;2.97;;;;;;;;;;5055725;28;20413;-82
2022/04/02 00:53:08;;;;;;;7.32;3.05;;;;;;;;;;5055153;28;20826;-83
2022/04/02 00:55:34;;;;;;;4.35;2.60;;;;;;;;;;5048967;28;20409;-82
2022/04/02 00:58:01;;;;;;;5.13;3.00;;;;;;;;;;5051214;28;20483;-84
2022/04/02 01:00:27;;;;;;;3.33;2.80;;;;;;;;;;5052442;28;20526;-83
2022/04/02 01:02:53;;;;;;;5.00;3.30;;;;;;;;;;5050286;28;20486;-85
2022/04/02 01:05:20;;;;;;;4.03;2.90;;;;;;;;;;5053270;28;20406;-83
2022/04/02 01:07:48;;;;;;;5.90;3.90;;;;;;;;;;5053217;28;20982;-82
2022/04/02 01:10:15;;;;;;;4.13;2.60;;;;;;;;;;5052025;28;20405;-84
2022/04/02 01:12:44;;;;;;;5.38;3.00;;;;;;;;;;5052990;28;20479;-83
2022/04/02 01:15:10;;;;;;;3.72;3.00;;;;;;;;;;5050569;28;20450;-84
2022/04/02 01:17:40;;;;;;;3.95;2.50;;;;;;;;;;5053497;28;21280;-83
2022/04/02 01:20:07;;;;;;;3.00;2.70;;;;;;;;;;5048143;28;20455;-82
2022/04/02 01:22:35;;;;;;;6.15;3.47;;;;;;;;;;5054352;28;20433;-83
2022/04/02 01:25:01;;;;;;;6.70;3.43;;;;;;;;;;5051761;28;20846;-83
2022/04/02 01:27:27;;;;;;;6.15;3.15;;;;;;;;;;5053417;28;20433;-83
2022/04/02 01:29:54;;;;;;;5.47;3.30;;;;;;;;;;5054105;28;20459;-83
2022/04/02 01:32:21;;;;;;;5.00;3.10;;;;;;;;;;5048849;28;20826;-83
2022/04/02 01:34:47;;;;;;;4.13;3.38;;;;;;;;;;5049568;28;20464;-81
2022/04/02 01:37:15;;;;;;;5.63;3.20;;;;;;;;;;5052589;28;20474;-83
2022/04/02 01:39:42;;;;;;;3.85;3.22;;;;;;;;;;5049788;28;20433;-82
2022/04/02 01:42:09;;;;;;;3.58;2.78;;;;;;;;;;5051707;28;20448;-83
2022/04/02 01:44:35;;;;;;;6.40;3.60;;;;;;;;;;5055609;28;20485;-83
2022/04/02 01:47:02;;;;;;;4.18;3.05;;;;;;;;;;5054734;28;20419;-83
2022/04/02 01:49:28;;;;;;;6.90;3.40;;;;;;;;;;5049700;28;20501;-85
2022/04/02 01:51:55;;;;;;;4.68;3.30;;;;;;;;;;5053068;28;20483;-82
2022/04/02 01:54:21;;;;;;;3.88;3.20;;;;;;;;;;5050559;28;20486;-83
2022/04/02 01:56:48;;;;;;;4.40;3.50;;;;;;;;;;5055940;28;20428;-83
2022/04/02 01:59:15;;;;;;;5.38;3.20;;;;;;;;;;5050158;28;20437;-83
2022/04/02 02:01:42;;;;;;;5.22;3.20;;;;;;;;;;5054545;28;20444;-84
2022/04/02 02:04:08;;;;;;;7.20;3.97;;;;;;;;;;5054972;28;20471;-83
2022/04/02 02:06:38;;;;;;;5.32;3.50;;;;;;;;;;5053367;28;20425;-83
2022/04/02 02:09:05;;;;;;;3.28;2.90;;;;;;;;;;5053913;28;20447;-83
2022/04/02 02:11:31;;;;;;;4.68;3.60;;;;;;;;;;5051037;28;20932;-82
2022/04/02 02:13:59;;;;;;;4.35;3.20;;;;;;;;;;5052730;28;20463;-85
2022/04/02 02:16:25;;;;;;;5.67;4.00;;;;;;;;;;5057040;28;20417;-83
2022/04/02 02:18:51;;;;;;;4.03;3.42;;;;;;;;;;5052415;28;20433;-83
2022/04/02 02:21:18;;;;;;;6.50;3.20;;;;;;;;;;5052983;28;20463;-83
2022/04/02 02:23:44;;;;;;;5.10;3.17;;;;;;;;;;5053427;28;20421;-82
2022/04/02 02:26:10;;;;;;;7.53;4.10;;;;;;;;;;5054493;28;20819;-84
2022/04/02 02:28:37;;;;;;;6.00;4.07;;;;;;;;;;5055708;28;20425;-83
2022/04/02 02:31:04;;;;;;;5.13;3.70;;;;;;;;;;5052667;28;20422;-83
2022/04/02 02:36:17;;;;;;;5.95;4.07;;;;;;;;;;5052804;28;20516;-82
2022/04/02 02:38:44;;;;;;;5.72;4.72;;;;;;;;;;5056147;28;20433;-84
2022/04/02 02:41:10;;;;;;;6.50;4.43;;;;;;;;;;5058757;28;20418;-82
2022/04/02 02:43:36;;;;;;;5.32;3.78;;;;;;;;;;5055392;28;20950;-83
2022/04/02 02:46:05;;;;;;;4.70;3.50;;;;;;;;;;5058536;28;20425;-82
2022/04/02 02:48:31;;;;;;;6.38;4.13;;;;;;;;;;5054213;28;20438;-82
2022/04/02 02:50:57;;;;;;;5.33;3.60;;;;;;;;;;5052111;28;20430;-83
2022/04/02 02:53:24;;;;;;;5.65;3.40;;;;;;;;;;5057365;28;20429;-82
2022/04/02 02:55:50;;;;;;;5.38;3.90;;;;;;;;;;5055823;28;20425;-83
2022/04/02 02:58:16;;;;;;;6.75;3.80;;;;;;;;;;5058874;28;20460;-84
2022/04/02 03:00:42;;;;;;;5.70;3.42;;;;;;;;;;5057160;28;20417;-83
2022/04/02 03:03:10;;;;;;;7.13;4.20;;;;;;;;;;5054157;28;20434;-83
2022/04/02 03:05:36;;;;;;;7.73;4.07;;;;;;;;;;5056410;28;20495;-84
2022/04/02 03:08:03;;;;;;;6.07;3.90;;;;;;;;;;5054380;28;20499;-85
2022/04/02 03:10:29;;;;;;;4.88;3.97;;;;;;;;;;5056718;28;20410;-82
2022/04/02 03:12:56;;;;;;;5.70;3.72;;;;;;;;;;5058325;28;20429;-82
2022/04/02 03:15:24;;;;;;;5.88;3.90;;;;;;;;;;5053835;28;20445;-82
2022/04/02 03:17:50;;;;;;;6.38;4.00;;;;;;;;;;5056134;28;20433;-82
2022/04/02 03:20:19;;;;;;;6.65;4.05;;;;;;;;;;5051977;28;20982;-81
2022/04/02 03:22:46;;;;;;;5.22;4.05;;;;;;;;;;5023347;28;20431;-83
2022/04/02 03:25:14;;;;;;;6.60;4.23;;;;;;;;;;5018927;28;20397;-82
2022/04/02 03:27:41;;;;;;;7.90;4.20;;;;;;;;;;5029593;28;20511;-83
2022/04/02 03:30:09;;;;;;;6.30;4.00;;;;;;;;;;5028697;28;20916;-83
2022/04/02 03:32:36;;;;;;;5.32;3.90;;;;;;;;;;5050253;28;20443;-84
2022/04/02 03:35:02;;;;;;;9.43;4.88;;;;;;;;;;5047698;28;20429;-83
2022/04/02 03:37:30;;;;;;;7.57;4.20;;;;;;;;;;5030006;28;20500;-83
2022/04/02 03:39:57;;;;;;;4.73;3.90;;;;;;;;;;5030683;28;20435;-84
2022/04/02 03:42:25;;;;;;;5.05;3.80;;;;;;;;;;5031341;28;20431;-83
2022/04/02 03:44:52;;;;;;;5.53;4.05;;;;;;;;;;5026403;28;20427;-83
2022/04/02 03:47:22;;;;;;;7.82;4.00;;;;;;;;;;5047820;28;20409;-83
2022/04/02 03:49:49;;;;;;;6.32;3.90;;;;;;;;;;5051799;28;20456;-82
2022/04/02 03:52:16;;;;;;;4.70;3.80;;;;;;;;;;5033610;28;20427;-83
2022/04/02 03:54:43;;;;;;;6.60;4.03;;;;;;;;;;5034689;28;20595;-83
2022/04/02 03:57:10;;;;;;;5.82;4.20;;;;;;;;;;5028685;28;20935;-85
2022/04/02 03:59:37;;;;;;;7.65;4.45;;;;;;;;;;5032740;28;20813;-83
2022/04/02 04:02:05;;;;;;;7.38;4.40;;;;;;;;;;5033974;28;20427;-85
2022/04/02 04:04:32;;;;;;;6.45;4.68;;;;;;;;;;5030903;28;20880;-83
2022/04/02 04:06:58;;;;;;;6.03;4.10;;;;;;;;;;5033508;28;20510;-83
2022/04/02 04:09:25;;;;;;;4.93;4.30;;;;;;;;;;5032788;28;20422;-83
2022/04/02 04:11:53;;;;;;;5.18;4.53;;;;;;;;;;5045567;28;20421;-83
2022/04/02 04:14:20;;;;;;;6.88;4.70;;;;;;;;;;5055520;28;20475;-82
2022/04/02 04:16:47;;;;;;;6.70;4.88;;;;;;;;;;5063081;23;20835;-78
2022/04/02 04:19:13;;;;;;;6.95;4.63;;;;;;;;;;5021741;28;20433;-77
2022/04/02 04:21:40;;;;;;;6.28;4.28;;;;;;;;;;5024257;28;20506;-78
2022/04/02 04:24:07;;;;;;;8.20;4.90;;;;;;;;;;5022158;28;20491;-77
2022/04/02 04:26:34;;;;;;;8.38;5.20;;;;;;;;;;5021262;28;20425;-78
2022/04/02 04:29:01;;;;;;;6.00;5.00;;;;;;;;;;5022008;28;20431;-78
2022/04/02 04:31:28;;;;;;;8.90;5.30;;;;;;;;;;5024359;28;20428;-78
2022/04/02 04:33:54;;;;;;;6.30;4.50;;;;;;;;;;5022973;28;20436;-79
2022/04/02 04:36:21;;;;;;;9.90;4.95;;;;;;;;;;5023072;28;20503;-78
2022/04/02 04:38:48;;;;;;;7.00;4.97;;;;;;;;;;5025682;28;20458;-78
2022/04/02 04:41:14;;;;;;;6.68;4.95;;;;;;;;;;5024621;28;20434;-79
2022/04/02 04:43:41;;;;;;;7.95;4.85;;;;;;;;;;5028618;28;20851;-78
2022/04/02 04:46:09;;;;;;;6.13;5.00;;;;;;;;;;5029877;28;20434;-76
2022/04/02 04:48:36;;;;;;;7.38;5.50;;;;;;;;;;5024991;28;20463;-78
2022/04/02 04:51:03;;;;;;;8.40;4.85;;;;;;;;;;5025626;28;20423;-78
2022/04/02 04:53:29;;;;;;;10.40;5.43;;;;;;;;;;5027380;28;20485;-77
2022/04/02 04:55:55;;;;;;;10.13;5.10;;;;;;;;;;5031359;28;20473;-78
2022/04/02 04:58:21;;;;;;;6.85;5.15;;;;;;;;;;5025858;28;20427;-78
2022/04/02 05:00:48;;;;;;;7.53;5.43;;;;;;;;;;5025086;28;20411;-78
2022/04/02 05:03:15;;;;;;;7.43;5.43;;;;;;;;;;5023197;28;20437;-78
2022/04/02 05:05:42;;;;;;;7.80;5.13;;;;;;;;;;5019515;28;20421;-76
2022/04/02 05:08:08;;;;;;;7.78;5.68;;;;;;;;;;5019575;28;20431;-76
2022/04/02 05:10:34;;;;;;;9.50;6.20;;;;;;;;;;5021420;28;20432;-78
2022/04/02 05:13:02;;;;;;;10.00;8.07;;;;;;;;;;5032537;28;20414;-77
2022/04/02 05:15:28;;;;;;;9.57;6.60;;;;;;;;;;5028071;28;20406;-78
2022/04/02 05:17:55;;;;;;;6.90;5.50;;;;;;;;;;5023040;28;20848;-77
2022/04/02 05:20:22;;;;;;;7.40;5.72;;;;;;;;;;5026044;28;20407;-78
2022/04/02 05:22:49;;;;;;;9.05;5.72;;;;;;;;;;5023663;28;20917;-77
2022/04/02 05:25:15;;;;;;;8.70;5.70;;;;;;;;;;5018914;28;20789;-78
2022/04/02 05:27:42;;;;;;;9.88;5.15;;;;;;;;;;5024965;28;20435;-77
2022/04/02 05:30:09;;;;;;;7.20;5.35;;;;;;;;;;5027212;28;20462;-79
2022/04/02 05:32:35;;;;;;;7.55;5.68;;;;;;;;;;5025570;28;20852;-78
2022/04/02 05:35:02;;;;;;;9.45;6.00;;;;;;;;;;5030531;28;20430;-77
2022/04/02 05:37:30;;;;;;;11.90;7.07;;;;;;;;;;5028280;28;20458;-78
2022/04/02 05:39:56;;;;;;;13.20;7.55;;;;;;;;;;5027028;28;20434;-77
2022/04/02 05:42:22;;;;;;;10.50;8.40;;;;;;;;;;5026037;28;20428;-77
2022/04/02 05:44:49;;;;;;;12.40;7.68;;;;;;;;;;5023104;28;20436;-79
2022/04/02 05:47:15;;;;;;;10.07;6.60;;;;;;;;;;5025542;28;20423;-78
2022/04/02 05:49:42;;;;;;;6.82;6.00;;;;;;;;;;5029291;28;20897;-78
2022/04/02 05:52:08;;;;;;;8.80;5.30;;;;;;;;;;5023856;28;20843;-77
2022/04/02 05:54:36;;;;;;;6.40;5.60;;;;;;;;;;5028645;28;20446;-78
2022/04/02 05:57:04;;;;;;;10.00;5.82;;;;;;;;;;5023728;28;20429;-77
2022/04/02 05:59:31;;;;;;;7.97;5.70;;;;;;;;;;5024691;28;20817;-77
2022/04/02 06:01:57;;;;;;;7.95;5.40;;;;;;;;;;5022081;28;20434;-78
2022/04/02 06:04:25;;;;;;;7.93;5.40;;;;;;;;;;5027715;28;20427;-78
2022/04/02 06:06:52;;;;;;;11.15;5.88;;;;;;;;;;5017625;28;20427;-77
2022/04/02 06:09:18;;;;;;;8.18;5.60;;;;;;;;;;5021354;28;20781;-77
2022/04/02 06:11:46;;;;;;;10.40;4.83;;;;;;;;;;5024690;28;20420;-77
2022/04/02 06:14:14;;;;;;;9.50;5.80;;;;;;;;;;5030031;28;20430;-75
2022/04/02 06:16:40;;;;;;;8.73;5.68;;;;;;;;;;5020869;28;20874;-77
2022/04/02 06:19:06;;;;;;;7.63;5.70;;;;;;;;;;5030352;28;20432;-77
2022/04/02 06:21:33;;;;;;;8.65;5.43;;;;;;;;;;5031693;28;20755;-78
2022/04/02 06:24:04;;;;;;;6.90;5.20;;;;;;;;;;5022927;28;20431;-78
2022/04/02 06:26:30;;;;;;;8.50;5.63;;;;;;;;;;5031315;28;21098;-78
2022/04/02 06:28:59;;;;;;;7.25;4.63;;;;;;;;;;5027810;28;20900;-77
2022/04/02 06:31:25;;;;;;;9.18;5.30;;;;;;;;;;5027018;28;20423;-77
2022/04/02 06:33:51;;;;;;;7.30;4.40;;;;;;;;;;5029694;28;20863;-78
2022/04/02 06:36:19;;;;;;;6.82;4.60;;;;;;;;;;5024071;28;20437;-79
2022/04/02 06:38:46;;;;;;;7.87;5.10;;;;;;;;;;5027491;28;20462;-78
2022/04/02 06:41:12;;;;;;;7.60;4.50;;;;;;;;;;5028998;28;20442;-77
2022/04/02 06:43:38;;;;;;;5.50;4.70;;;;;;;;;;5028918;28;20990;-78
2022/04/02 06:46:06;;;;;;;6.10;4.65;;;;;;;;;;5028433;28;20419;-78
2022/04/02 06:48:32;;;;;;;6.78;4.88;;;;;;;;;;5019521;28;21019;-78
2022/04/02 06:50:58;;;;;;;6.45;4.45;;;;;;;;;;5025727;28;20953;-78
2022/04/02 06:53:25;;;;;;;5.90;5.30;;;;;;;;;;5027740;28;20462;-77
2022/04/02 06:55:51;;;;;;;7.93;4.87;;;;;;;;;;5025796;28;20423;-78
2022/04/02 06:58:23;;;;;;;9.57;5.38;;;;;;;;;;5028875;28;20518;-78
2022/04/02 07:00:49;;;;;;;6.88;4.97;;;;;;;;;;5019144;28;20419;-78
2022/04/02 07:03:17;;;;;;;6.88;4.90;;;;;;;;;;5031313;28;20427;-78
2022/04/02 07:05:43;;;;;;;6.45;4.22;;;;;;;;;;5026684;28;20427;-78
2022/04/02 07:08:09;;;;;;;5.95;4.70;;;;;;;;;;5030625;28;20465;-78
2022/04/02 07:10:35;;;;;;;7.30;4.50;;;;;;;;;;5016415;28;20423;-77
2022/04/02 07:13:02;;;;;;;7.00;4.10;;;;;;;;;;5030794;28;20414;-78
2022/04/02 07:15:28;;;;;;;9.38;5.07;;;;;;;;;;5025122;28;20817;-77
2022/04/02 07:17:54;;;;;;;6.65;4.28;;;;;;;;;;5029760;28;20477;-76
2022/04/02 07:20:27;;;;;;;7.57;4.70;;;;;;;;;;5029055;28;20423;-78
2022/04/02 07:22:53;;;;;;;5.10;4.20;;;;;;;;;;5028468;28;20419;-77
2022/04/02 07:25:20;;;;;;;6.00;4.20;;;;;;;;;;5031667;28;20489;-77
2022/04/02 07:27:46;;;;;;;5.20;4.30;;;;;;;;;;5030463;28;20805;-78
2022/04/02 07:30:13;;;;;;;6.40;4.45;;;;;;;;;;5028167;28;21111;-77
2022/04/02 07:32:39;;;;;;;5.97;4.50;;;;;;;;;;5027650;28;20441;-77
2022/04/02 07:35:06;;;;;;;6.32;3.90;;;;;;;;;;5029035;28;20422;-78
2022/04/02 07:37:41;;;;;;;7.05;4.35;;;;;;;;;;5021253;28;20865;-78
2022/04/02 07:40:13;;;;;;;7.65;4.78;;;;;;;;;;5026430;28;20458;-77
2022/04/02 07:42:45;;;;;;;5.70;4.37;;;;;;;;;;5028158;28;20916;-77
2022/04/02 07:45:13;;;;;;;5.82;4.65;;;;;;;;;;5017364;28;20439;-78
2022/04/02 07:47:42;;;;;;;6.70;4.60;;;;;;;;;;5026752;28;20805;-78
2022/04/02 07:50:11;;;;;;;5.43;4.20;;;;;;;;;;5027943;28;20489;-78
2022/04/02 07:52:39;;;;;;;5.50;4.00;;;;;;;;;;5023384;28;20493;-78
2022/04/02 07:55:06;;;;;;;6.03;4.20;;;;;;;;;;5023525;28;20481;-77
2022/04/02 07:57:35;;;;;;;5.20;4.47;;;;;;;;;;5023788;28;20832;-78
2022/04/02 08:00:04;;;;;;;6.20;3.67;;;;;;;;;;5020666;28;20933;-78
2022/04/02 08:02:38;;;;;;;9.00;4.25;;;;;;;;;;5027315;28;20440;-78
2022/04/02 08:05:05;;;;;;;5.50;4.00;;;;;;;;;;5026753;28;20453;-78
2022/04/02 08:07:33;;;;;;;6.57;4.43;;;;;;;;;;5024510;28;20964;-77
2022/04/02 08:10:02;;;;;;;5.85;4.60;;;;;;;;;;5024896;28;20804;-79
2022/04/02 08:12:29;;;;;;;7.47;4.32;;;;;;;;;;5028900;28;20434;-77
2022/04/02 08:14:55;;;;;;;6.00;4.10;;;;;;;;;;5027232;28;20469;-78
2022/04/02 08:17:22;;;;;;;6.40;4.50;;;;;;;;;;5020894;28;20430;-78
2022/04/02 08:19:49;;;;;;;5.28;4.40;;;;;;;;;;5014810;28;20473;-78
2022/04/02 08:22:16;;;;;;;5.20;4.13;;;;;;;;;;5021592;28;20464;-78
2022/04/02 08:24:43;;;;;;;5.95;4.35;;;;;;;;;;5020530;28;20427;-78
2022/04/02 08:27:15;;;;;;;5.13;3.85;;;;;;;;;;5022007;28;20472;-78
2022/04/02 08:29:50;;;;;;;4.85;3.70;;;;;;;;;;5022495;28;20432;-78
2022/04/02 08:32:25;;;;;;;5.40;3.83;;;;;;;;;;5021353;28;20478;-77
2022/04/02 08:35:02;;;;;;;5.82;3.70;;;;;;;;;;5018883;28;20431;-78
2022/04/02 08:37:30;;;;;;;3.93;3.00;;;;;;;;;;5021226;28;20950;-78
2022/04/02 08:40:03;;;;;;;4.50;2.92;;;;;;;;;;5018641;28;20486;-78
2022/04/02 08:42:48;;;;;;;4.68;3.58;;;;;;;;;;5019639;28;20437;-77
2022/04/02 08:45:20;;;;;;;4.40;3.50;;;;;;;;;;5020677;28;20431;-78
2022/04/02 08:48:04;;;;;;;5.33;3.40;;;;;;;;;;5021969;28;20540;-79
2022/04/02 08:50:31;;;;;;;5.00;3.50;;;;;;;;;;5020912;28;20486;-79
2022/04/02 08:53:01;;;;;;;3.97;3.17;;;;;;;;;;5023117;28;20431;-78
2022/04/02 08:55:32;;;;;;;4.03;2.80;;;;;;;;;;5019580;28;20479;-77
2022/04/02 08:58:11;;;;;;;4.57;2.80;;;;;;;;;;5020339;28;20496;-76
2022/04/02 09:00:43;;;;;;;3.33;2.80;;;;;;;;;;5018230;28;20422;-78
2022/04/02 09:03:21;;;;;;;5.28;3.10;;;;;;;;;;5020529;28;20488;-78
2022/04/02 09:05:54;;;;;;;5.40;3.00;;;;;;;;;;5021081;28;20423;-78
2022/04/02 09:08:41;;;;;;;3.60;3.30;;;;;;;;;;5021228;28;20432;-78
2022/04/02 09:11:21;;;;;;;2.58;2.35;;;;;;;;;;5021246;28;20514;-78
2022/04/02 09:14:08;;;;;;;4.50;2.70;;;;;;;;;;5018538;28;20475;-79
2022/04/02 09:16:39;;;;;;;3.35;2.75;;;;;;;;;;5018800;28;20432;-78
2022/04/02 09:19:11;;;;;;;3.80;2.70;;;;;;;;;;5020039;28;20427;-78
2022/04/02 09:21:45;;;;;;;5.00;2.78;;;;;;;;;;5022125;28;20427;-78
2022/04/02 09:24:13;;;;;;;5.05;2.78;;;;;;;;;;5020238;28;20472;-78
2022/04/02 09:26:59;;;;;;;3.08;2.60;;;;;;;;;;5020852;28;20443;-78
2022/04/02 09:29:27;;;;;;;4.05;2.75;;;;;;;;;;5020285;28;20421;-78
2022/04/02 09:32:08;;;;;;;3.90;2.58;;;;;;;;;;5018255;28;20521;-78
2022/04/02 09:35:02;;;;;;;4.22;2.55;;;;;;;;;;5020609;28;20517;-78
2022/04/02 09:37:32;;;;;;;3.25;2.35;;;;;;;;;;5019728;28;20440;-78
2022/04/02 09:40:03;;;;;;;5.03;2.97;;;;;;;;;;5019103;28;20925;-78
2022/04/02 09:42:37;;;;;;;5.97;2.72;;;;;;;;;;5022094;28;20431;-77
2022/04/02 09:45:05;;;;;;;3.53;2.20;;;;;;;;;;5021874;28;20440;-78
2022/04/02 09:47:51;;;;;;;7.18;2.60;;;;;;;;;;5023188;28;20442;-78
2022/04/02 09:50:19;;;;;;;12.57;3.00;;;;;;;;;;5019990;28;20450;-78
2022/04/02 09:52:46;;;;;;;4.20;2.30;;;;;;;;;;5022588;28;20447;-77
2022/04/02 09:55:13;;;;;;;5.13;2.50;;;;;;;;;;5017626;28;20426;-78
2022/04/02 09:57:54;;;;;;;3.00;2.50;;;;;;;;;;5017741;28;20513;-77
2022/04/02 10:00:20;;;;;;;2.78;1.90;;;;;;;;;;5019431;28;20469;-77
2022/04/02 10:03:05;;;;;;;3.95;2.28;;;;;;;;;;5017771;28;20518;-77
2022/04/02 10:05:45;;;;;;;3.85;1.80;;;;;;;;;;5017977;28;20469;-78
2022/04/02 10:08:13;;;;;;;2.35;1.70;;;;;;;;;;5015499;28;20465;-77
2022/04/02 10:10:40;;;;;;;3.22;2.20;;;;;;;;;;5018840;28;20481;-78
2022/04/02 10:13:06;;;;;;;3.75;1.90;;;;;;;;;;5018479;28;20421;-78
2022/04/02 10:15:32;;;;;;;3.00;2.10;;;;;;;;;;5016584;28;20431;-78
2022/04/02 10:18:02;;;;;;;2.72;2.03;;;;;;;;;;5054199;22;20455;-83
2022/04/02 10:20:30;;;;;;;4.30;2.00;;;;;;;;;;5039117;28;20417;-84
2022/04/02 10:23:01;;;;;;;2.97;2.10;;;;;;;;;;5039321;28;20446;-85
2022/04/02 10:25:29;;;;;;;2.20;2.00;;;;;;;;;;5037278;28;20431;-84
2022/04/02 10:27:55;;;;;;;2.30;2.10;;;;;;;;;;5032238;28;20525;-84
2022/04/02 10:30:24;;;;;;;2.80;2.50;;;;;;;;;;5019645;28;20483;-83
2022/04/02 10:32:55;;;;;;;3.60;2.30;;;;;;;;;;5024463;28;20432;-83
2022/04/02 10:35:24;;;;;;;2.13;1.80;;;;;;;;;;5024264;28;20469;-84
2022/04/02 10:38:03;;;;;;;3.33;2.40;;;;;;;;;;5023274;28;20433;-84
2022/04/02 10:40:30;;;;;;;4.95;2.35;;;;;;;;;;5021050;28;20899;-84
2022/04/02 10:43:02;;;;;;;2.90;2.20;;;;;;;;;;5023111;28;20413;-83
2022/04/02 10:45:29;;;;;;;3.88;2.30;;;;;;;;;;5019691;28;20429;-83
2022/04/02 10:47:58;;;;;;;3.22;2.10;;;;;;;;;;5024131;28;20423;-84
2022/04/02 10:50:26;;;;;;;4.15;2.00;;;;;;;;;;5023135;28;20520;-83
2022/04/02 10:52:52;;;;;;;2.42;1.90;;;;;;;;;;5023615;28;20423;-83
2022/04/02 10:55:24;;;;;;;2.77;2.00;;;;;;;;;;5023503;28;20449;-82
2022/04/02 10:57:50;;;;;;;4.10;2.15;;;;;;;;;;5025916;28;20419;-82
2022/04/02 11:00:17;;;;;;;3.10;2.00;;;;;;;;;;5024085;28;20855;-83
2022/04/02 11:02:44;;;;;;;3.10;2.50;;;;;;;;;;5026599;28;20419;-84
2022/04/02 11:05:13;;;;;;;2.53;1.92;;;;;;;;;;5025564;28;20502;-83
2022/04/02 11:07:43;;;;;;;2.47;2.00;;;;;;;;;;5024802;28;20438;-84
2022/04/02 11:10:12;;;;;;;3.47;2.30;;;;;;;;;;5023884;28;20538;-83
2022/04/02 11:12:41;;;;;;;4.15;2.20;;;;;;;;;;5026279;28;20420;-85
2022/04/02 11:15:09;;;;;;;2.70;2.35;;;;;;;;;;5026379;28;20437;-84
2022/04/02 11:17:36;;;;;;;2.60;2.40;;;;;;;;;;5024856;28;20455;-83
2022/04/02 11:20:04;;;;;;;4.25;2.75;;;;;;;;;;5025014;28;20922;-86
2022/04/02 11:22:36;;;;;;;3.20;2.60;;;;;;;;;;5026988;28;20422;-84
2022/04/02 11:25:06;;;;;;;3.10;2.50;;;;;;;;;;5026447;28;20423;-84
2022/04/02 11:27:36;;;;;;;4.73;2.70;;;;;;;;;;5025353;28;20435;-84
2022/04/02 11:30:03;;;;;;;5.40;2.60;;;;;;;;;;5023278;28;20505;-83
2022/04/02 11:32:37;;;;;;;3.75;2.70;;;;;;;;;;5023936;28;20489;-83
2022/04/02 11:35:07;;;;;;;4.05;2.50;;;;;;;;;;5023310;28;20428;-83
2022/04/02 11:37:36;;;;;;;2.80;2.42;;;;;;;;;;5024015;28;20844;-83
2022/04/02 11:40:06;;;;;;;2.80;2.45;;;;;;;;;;5021912;28;20928;-83
2022/04/02 11:42:34;;;;;;;3.65;2.90;;;;;;;;;;5021695;28;20431;-83
2022/04/02 11:45:02;;;;;;;3.92;2.80;;;;;;;;;;5021345;28;20457;-83
2022/04/02 11:47:29;;;;;;;5.95;2.80;;;;;;;;;;5023149;28;20431;-83
2022/04/02 11:50:02;;;;;;;6.25;3.15;;;;;;;;;;5021501;28;20425;-83
2022/04/02 11:52:28;;;;;;;4.28;2.80;;;;;;;;;;5023902;28;20439;-83
2022/04/02 11:54:59;;;;;;;3.10;2.80;;;;;;;;;;5023609;28;20446;-83
2022/04/02 11:57:26;;;;;;;3.03;2.72;;;;;;;;;;5024317;28;20431;-83
2022/04/02 11:59:53;;;;;;;5.55;2.88;;;;;;;;;;5022087;28;20419;-83
2022/04/02 12:02:35;;;;;;;3.17;2.40;;;;;;;;;;5024680;28;20437;-83
2022/04/02 12:05:02;;;;;;;3.47;2.30;;;;;;;;;;5022214;28;20706;-82
2022/04/02 12:07:38;;;;;;;2.50;2.20;;;;;;;;;;5021852;28;20436;-84
2022/04/02 12:10:05;;;;;;;3.40;2.97;;;;;;;;;;5022211;28;20437;-82
2022/04/02 12:12:33;;;;;;;2.55;2.13;;;;;;;;;;5021604;28;20439;-83
2022/04/02 12:15:08;;;;;;;2.95;2.50;;;;;;;;;;5022163;28;20431;-83
2022/04/02 12:17:35;;;;;;;2.80;2.40;;;;;;;;;;5024290;28;20917;-83
2022/04/02 12:20:01;;;;;;;2.67;2.42;;;;;;;;;;5022569;28;20434;-83
2022/04/02 12:22:30;;;;;;;2.40;2.20;;;;;;;;;;5020167;28;20467;-83
2022/04/02 12:24:57;;;;;;;4.22;2.25;;;;;;;;;;5020608;28;21032;-83
2022/04/02 12:27:24;;;;;;;4.53;2.80;;;;;;;;;;5023943;28;20465;-83
2022/04/02 12:29:53;;;;;;;3.72;2.63;;;;;;;;;;5021352;28;20425;-83
2022/04/02 12:32:28;;;;;;;3.10;2.50;;;;;;;;;;5020099;28;20435;-83
2022/04/02 12:34:55;;;;;;;2.70;2.10;;;;;;;;;;5022662;28;20513;-83
2022/04/02 12:37:22;;;;;;;3.03;2.13;;;;;;;;;;5022305;28;20918;-83
2022/04/02 12:39:48;;;;;;;2.97;2.10;;;;;;;;;;5023008;28;20415;-83
2022/04/02 12:42:14;;;;;;;2.28;2.00;;;;;;;;;;5022714;28;20432;-83
2022/04/02 12:44:40;;;;;;;2.58;1.77;;;;;;;;;;5023715;28;20429;-83
2022/04/02 12:47:10;;;;;;;3.38;2.10;;;;;;;;;;5021519;28;20423;-83
2022/04/02 12:49:37;;;;;;;3.17;2.50;;;;;;;;;;5021902;28;20431;-83
2022/04/02 12:52:10;;;;;;;4.53;3.20;;;;;;;;;;5023754;28;21286;-83
2022/04/02 12:54:36;;;;;;;2.90;2.60;;;;;;;;;;5021358;28;20473;-83
2022/04/02 12:57:11;;;;;;;3.67;2.72;;;;;;;;;;5022536;28;20436;-82
2022/04/02 12:59:41;;;;;;;3.72;2.80;;;;;;;;;;5021683;28;20428;-83
2022/04/02 13:02:07;;;;;;;3.95;3.00;;;;;;;;;;5022936;28;20692;-83
2022/04/02 13:04:36;;;;;;;2.50;2.30;;;;;;;;;;5022395;28;20437;-84
2022/04/02 13:07:04;;;;;;;3.22;2.67;;;;;;;;;;5021917;28;20439;-83
2022/04/02 13:09:31;;;;;;;3.28;2.40;;;;;;;;;;5020968;28;20457;-83
2022/04/02 13:11:58;;;;;;;3.70;2.70;;;;;;;;;;5025957;28;20435;-83
2022/04/02 13:14:25;;;;;;;3.30;2.60;;;;;;;;;;5024053;28;20443;-83
2022/04/02 13:16:52;;;;;;;3.00;2.58;;;;;;;;;;5024522;28;20459;-84
2022/04/02 13:22:05;;;;;;;2.85;2.20;;;;;;;;;;5024500;28;20935;-84
2022/04/02 13:24:32;;;;;;;1.90;1.70;;;;;;;;;;5025870;28;20423;-84
2022/04/02 13:27:18;;;;;;;2.97;2.00;;;;;;;;;;5025972;28;20429;-83
2022/04/02 13:29:52;;;;;;;1.90;1.70;;;;;;;;;;5023585;28;20462;-82
2022/04/02 13:32:27;;;;;;;3.08;1.80;;;;;;;;;;5024542;28;20431;-85
2022/04/02 13:34:59;;;;;;;2.28;2.08;;;;;;;;;;5024257;28;20439;-83
2022/04/02 13:37:35;;;;;;;3.17;1.87;;;;;;;;;;5023836;28;20829;-84
2022/04/02 13:40:02;;;;;;;1.60;1.50;;;;;;;;;;5019439;28;20828;-83
2022/04/02 13:42:31;;;;;;;2.38;1.67;;;;;;;;;;5019901;28;20514;-83
2022/04/02 13:44:58;;;;;;;3.30;1.80;;;;;;;;;;5020073;28;20439;-83
2022/04/02 13:47:25;;;;;;;3.30;2.30;;;;;;;;;;5019816;28;20435;-83
2022/04/02 13:49:55;;;;;;;5.00;2.60;;;;;;;;;;5018625;28;20418;-83
2022/04/02 13:52:22;;;;;;;3.22;2.60;;;;;;;;;;5020208;28;20433;-83
2022/04/02 13:54:57;;;;;;;4.23;2.60;;;;;;;;;;5021369;28;20510;-83
2022/04/02 13:57:28;;;;;;;3.45;2.70;;;;;;;;;;5021486;28;21766;-83
2022/04/02 14:00:04;;;;;;;3.15;2.85;;;;;;;;;;5022967;28;20445;-83
2022/04/02 14:02:31;;;;;;;2.80;2.47;;;;;;;;;;5025892;28;20423;-83
2022/04/02 14:05:01;;;;;;;4.38;2.50;;;;;;;;;;5023079;28;20776;-83
2022/04/02 14:07:29;;;;;;;3.97;2.50;;;;;;;;;;5024097;28;20960;-83
2022/04/02 14:10:01;;;;;;;3.10;2.80;;;;;;;;;;5021910;28;20425;-83
2022/04/02 14:12:31;;;;;;;5.40;2.80;;;;;;;;;;5023882;28;20440;-83
2022/04/02 14:14:59;;;;;;;3.50;2.60;;;;;;;;;;5021314;28;20435;-83
2022/04/02 14:17:30;;;;;;;4.63;2.65;;;;;;;;;;5023019;28;20430;-82
2022/04/02 14:20:02;;;;;;;6.40;2.70;;;;;;;;;;5021161;28;20480;-82
2022/04/02 14:22:30;;;;;;;4.47;2.97;;;;;;;;;;5018931;28;20495;-83
2022/04/02 14:25:02;;;;;;;4.45;2.85;;;;;;;;;;5020863;28;20461;-83
2022/04/02 14:27:37;;;;;;;6.80;3.10;;;;;;;;;;5021218;28;20432;-83
2022/04/02 14:30:06;;;;;;;5.40;3.20;;;;;;;;;;5021537;28;20512;-84
2022/04/02 14:33:00;;;;;;;4.95;2.95;;;;;;;;;;5023370;28;20483;-83
2022/04/02 14:35:39;;;;;;;4.25;2.63;;;;;;;;;;5025368;28;20872;-83
2022/04/02 14:38:16;;;;;;;7.13;2.70;;;;;;;;;;5023657;28;20956;-83
2022/04/02 14:40:49;;;;;;;4.68;2.47;;;;;;;;;;5005797;28;20946;-83
2022/04/02 14:43:33;;;;;;;3.07;2.40;;;;;;;;;;5004932;28;20434;-83
2022/04/02 14:46:17;;;;;;;3.83;2.80;;;;;;;;;;5003789;28;20932;-83
2022/04/02 14:49:02;;;;;;;3.80;3.00;;;;;;;;;;5003619;28;20437;-83
2022/04/02 14:51:54;;;;;;;4.55;2.55;;;;;;;;;;5005406;28;20426;-83
2022/04/02 14:54:35;;;;;;;6.10;3.20;;;;;;;;;;5005217;28;20503;-83
2022/04/02 14:57:22;;;;;;;3.85;3.00;;;;;;;;;;4971693;28;20440;-83
2022/04/02 15:00:16;;;;;;;4.00;2.80;;;;;;;;;;4998513;28;20422;-85